createdAt,value
2022-10-22T00:00:55.724Z,14.76
2022-10-22T00:03:24.877Z,14.72
2022-10-22T00:05:52.603Z,14.68
2022-10-22T00:08:20.354Z,14.77
2022-10-22T00:10:48.204Z,14.82
2022-10-22T00:13:15.944Z,14.97
2022-10-22T00:15:43.778Z,15.00
2022-10-22T00:18:11.713Z,15.10
2022-10-22T00:20:40.855Z,15.13
2022-10-22T00:23:08.886Z,15.16
2022-10-22T00:25:37.256Z,15.13
2022-10-22T00:28:05.535Z,15.17
2022-10-22T00:30:33.464Z,15.27
2022-10-22T00:33:01.269Z,15.27
2022-10-22T00:35:29.063Z,15.30
2022-10-22T00:37:58.177Z,15.36
2022-10-22T00:40:26.461Z,15.38
2022-10-22T00:42:54.999Z,15.36
2022-10-22T00:45:25.295Z,15.38
2022-10-22T00:48:00.962Z,15.36
2022-10-22T00:50:32.631Z,15.22
2022-10-22T00:53:02.855Z,15.23
2022-10-22T00:55:31.773Z,15.17
2022-10-22T00:58:00.803Z,15.10
2022-10-22T01:00:29.036Z,15.08
2022-10-22T01:02:58.345Z,15.08
2022-10-22T01:05:28.343Z,15.04
2022-10-22T01:07:56.338Z,15.03
2022-10-22T01:10:46.508Z,15.13
2022-10-22T01:13:32.974Z,15.13
2022-10-22T01:16:11.625Z,15.11
2022-10-22T01:18:48.937Z,15.19
2022-10-22T01:21:26.208Z,15.07
2022-10-22T01:24:20.300Z,15.08
2022-10-22T01:27:04.999Z,15.08
2022-10-22T01:29:39.891Z,15.16
2022-10-22T01:32:11.950Z,15.19
2022-10-22T01:34:43.737Z,15.16
2022-10-22T01:37:13.730Z,15.14
2022-10-22T01:39:43.971Z,15.14
2022-10-22T01:42:13.921Z,15.17
2022-10-22T01:44:43.367Z,15.14
2022-10-22T01:47:24.114Z,15.14
2022-10-22T01:50:14.419Z,15.10
2022-10-22T01:52:58.003Z,15.10
2022-10-22T01:55:33.256Z,15.00
2022-10-22T01:58:12.199Z,15.03
2022-10-22T02:00:48.808Z,15.06
2022-10-22T02:03:23.718Z,15.00
2022-10-22T02:05:56.445Z,15.02
2022-10-22T02:08:26.875Z,14.92
2022-10-22T02:10:55.677Z,14.93
2022-10-22T02:13:28.183Z,14.90
2022-10-22T02:15:58.504Z,14.89
2022-10-22T02:18:31.088Z,14.89
2022-10-22T02:21:01.940Z,14.89
2022-10-22T02:23:30.095Z,14.93
2022-10-22T02:26:04.153Z,14.92
2022-10-22T02:28:38.463Z,14.87
2022-10-22T02:31:14.928Z,15.06
2022-10-22T02:33:47.209Z,15.11
2022-10-22T02:36:16.504Z,15.11
2022-10-22T02:38:44.405Z,15.16
2022-10-22T02:41:12.232Z,15.08
2022-10-22T02:43:42.338Z,15.06
2022-10-22T02:46:12.618Z,15.13
2022-10-22T02:48:40.447Z,15.10
2022-10-22T02:51:08.291Z,15.08
2022-10-22T02:53:36.021Z,15.08
2022-10-22T02:56:03.876Z,15.08
2022-10-22T02:58:31.603Z,15.14
2022-10-22T03:00:59.397Z,15.20
2022-10-22T03:03:28.534Z,15.19
2022-10-22T03:05:56.235Z,15.20
2022-10-22T03:08:23.977Z,15.16
2022-10-22T03:10:51.742Z,15.19
2022-10-22T03:13:19.463Z,15.14
2022-10-22T03:15:49.599Z,15.08
2022-10-22T03:18:17.909Z,15.19
2022-10-22T03:20:46.980Z,15.24
2022-10-22T03:23:15.963Z,15.22
2022-10-22T03:25:46.039Z,15.14
2022-10-22T03:28:16.214Z,15.17
2022-10-22T03:30:43.981Z,15.14
2022-10-22T03:33:11.700Z,15.11
2022-10-22T03:35:45.278Z,15.11
2022-10-22T03:38:15.230Z,15.08
2022-10-22T03:40:44.847Z,15.04
2022-10-22T03:43:12.978Z,15.02
2022-10-22T03:45:40.742Z,15.00
2022-10-22T03:48:08.469Z,15.04
2022-10-22T03:50:36.450Z,15.00
2022-10-22T03:53:04.900Z,15.07
2022-10-22T03:55:33.943Z,15.07
2022-10-22T03:58:02.177Z,15.06
2022-10-22T04:00:29.928Z,15.07
2022-10-22T04:02:57.786Z,15.19
2022-10-22T04:05:25.547Z,15.17
2022-10-22T04:07:53.449Z,15.24
2022-10-22T04:10:21.330Z,15.20
2022-10-22T04:12:50.684Z,15.20
2022-10-22T04:15:18.734Z,15.24
2022-10-22T04:17:46.521Z,15.23
2022-10-22T04:20:14.212Z,15.17
2022-10-22T04:22:41.943Z,15.22
2022-10-22T04:25:10.478Z,15.19
2022-10-22T04:27:38.332Z,15.17
2022-10-22T04:30:09.349Z,15.07
2022-10-22T04:32:37.114Z,15.00
2022-10-22T04:35:05.568Z,14.96
2022-10-22T04:37:34.114Z,14.93
2022-10-22T04:40:01.947Z,14.95
2022-10-22T04:42:29.726Z,14.90
2022-10-22T04:44:57.445Z,14.89
2022-10-22T04:47:26.605Z,14.90
2022-10-22T04:49:54.347Z,14.86
2022-10-22T04:52:22.072Z,14.92
2022-10-22T04:54:49.855Z,14.95
2022-10-22T04:57:17.547Z,14.86
2022-10-22T04:59:45.317Z,14.83
2022-10-22T05:02:13.014Z,14.85
2022-10-22T05:04:44.564Z,14.85
2022-10-22T05:07:12.259Z,14.86
2022-10-22T05:09:40.029Z,14.85
2022-10-22T05:12:07.921Z,14.86
2022-10-22T05:14:35.652Z,14.83
2022-10-22T05:17:03.463Z,14.82
2022-10-22T05:19:33.279Z,14.83
2022-10-22T05:22:04.017Z,14.83
2022-10-22T05:24:33.381Z,14.82
2022-10-22T05:27:01.463Z,14.89
2022-10-22T05:29:29.495Z,14.82
2022-10-22T05:31:57.608Z,14.80
2022-10-22T05:34:25.357Z,14.75
2022-10-22T05:36:53.091Z,14.69
2022-10-22T05:39:22.191Z,14.64
2022-10-22T05:41:49.916Z,14.62
2022-10-22T05:44:17.651Z,14.61
2022-10-22T05:46:45.379Z,14.59
2022-10-22T05:49:15.052Z,14.52
2022-10-22T05:51:43.103Z,14.54
2022-10-22T05:54:17.738Z,14.52
2022-10-22T05:56:47.012Z,14.55
2022-10-22T05:59:14.651Z,14.51
2022-10-22T06:01:42.691Z,14.46
2022-10-22T06:04:13.485Z,14.48
2022-10-22T06:06:44.410Z,14.42
2022-10-22T06:09:16.766Z,14.44
2022-10-22T06:11:45.936Z,14.39
2022-10-22T06:14:14.532Z,14.45
2022-10-22T06:16:43.225Z,14.42
2022-10-22T06:19:12.136Z,14.44
2022-10-22T06:21:40.708Z,14.45
2022-10-22T06:24:10.447Z,14.44
2022-10-22T06:26:38.824Z,14.44
2022-10-22T06:29:08.206Z,14.46
2022-10-22T06:31:37.603Z,14.54
2022-10-22T06:34:06.138Z,14.59
2022-10-22T06:36:34.309Z,14.62
2022-10-22T06:39:02.204Z,14.68
2022-10-22T06:41:30.027Z,14.72
2022-10-22T06:43:58.739Z,14.76
2022-10-22T06:46:28.265Z,14.82
2022-10-22T06:48:57.275Z,14.83
2022-10-22T06:51:26.025Z,14.92
2022-10-22T06:53:54.652Z,15.23
2022-10-22T06:56:24.862Z,15.16
2022-10-22T06:58:54.751Z,15.77
2022-10-22T07:01:25.058Z,16.28
2022-10-22T07:03:54.665Z,16.81
2022-10-22T07:06:23.583Z,17.39
2022-10-22T07:08:51.617Z,17.49
2022-10-22T07:11:21.505Z,17.76
2022-10-22T07:13:50.317Z,17.99
2022-10-22T07:16:19.271Z,18.34
2022-10-22T07:18:47.540Z,18.51
2022-10-22T07:21:19.234Z,18.72
2022-10-22T07:23:47.357Z,19.01
2022-10-22T07:26:16.960Z,18.79
2022-10-22T07:28:45.173Z,17.94
2022-10-22T07:31:14.651Z,17.70
2022-10-22T07:33:42.425Z,17.12
2022-10-22T07:36:17.404Z,17.01
2022-10-22T07:38:47.704Z,16.61
2022-10-22T07:41:16.879Z,16.45
2022-10-22T07:43:45.346Z,16.38
2022-10-22T07:46:13.395Z,16.19
2022-10-22T07:48:41.262Z,16.15
2022-10-22T07:51:09.127Z,16.18
2022-10-22T07:53:37.264Z,16.13
2022-10-22T07:56:07.102Z,16.04
2022-10-22T07:58:35.367Z,16.33
2022-10-22T08:01:05.738Z,17.36
2022-10-22T08:03:34.327Z,17.70
2022-10-22T08:06:02.743Z,17.36
2022-10-22T08:08:31.135Z,17.68
2022-10-22T08:11:01.483Z,19.02
2022-10-22T08:13:31.488Z,18.67
2022-10-22T08:16:00.212Z,18.01
2022-10-22T08:18:29.025Z,17.82
2022-10-22T08:20:56.865Z,18.01
2022-10-22T08:23:27.533Z,17.61
2022-10-22T08:25:56.995Z,17.72
2022-10-22T08:28:24.917Z,17.69
2022-10-22T08:30:54.121Z,17.55
2022-10-22T08:33:21.725Z,17.58
2022-10-22T08:35:50.368Z,17.59
2022-10-22T08:38:18.658Z,17.39
2022-10-22T08:40:51.101Z,17.34
2022-10-22T08:43:55.480Z,17.10
2022-10-22T08:46:40.101Z,16.77
2022-10-22T08:49:15.583Z,16.53
2022-10-22T08:51:43.514Z,16.55
2022-10-22T08:54:20.760Z,16.52
2022-10-22T08:56:59.456Z,16.40
2022-10-22T08:59:32.596Z,16.42
2022-10-22T09:02:03.548Z,16.30
2022-10-22T09:04:37.374Z,16.33
2022-10-22T09:07:05.220Z,16.32
2022-10-22T09:09:36.847Z,16.28
2022-10-22T09:12:07.095Z,16.32
2022-10-22T09:14:34.940Z,16.46
2022-10-22T09:17:19.685Z,16.61
2022-10-22T09:19:58.539Z,16.66
2022-10-22T09:25:20.539Z,16.69
2022-10-22T09:27:48.816Z,16.59
2022-10-22T09:30:18.783Z,16.64
2022-10-22T09:32:49.022Z,16.74
2022-10-22T09:35:24.161Z,16.80
2022-10-22T09:37:55.721Z,16.74
2022-10-22T09:40:24.712Z,16.74
2022-10-22T09:42:52.485Z,16.66
2022-10-22T09:45:21.878Z,16.59
2022-10-22T09:48:01.926Z,16.61
2022-10-22T09:50:38.029Z,16.55
2022-10-22T09:53:13.278Z,16.57
2022-10-22T09:55:42.186Z,16.52
2022-10-22T09:58:13.783Z,16.50
2022-10-22T10:00:44.564Z,16.55
2022-10-22T10:03:19.470Z,16.52
2022-10-22T10:05:49.644Z,16.46
2022-10-22T10:08:18.810Z,16.40
2022-10-22T10:10:49.731Z,16.40
2022-10-22T10:13:38.250Z,16.46
2022-10-22T10:16:13.512Z,16.45
2022-10-22T10:19:01.834Z,16.45
2022-10-22T10:21:40.109Z,16.49
2022-10-22T10:24:19.100Z,16.49
2022-10-22T10:26:50.430Z,16.45
2022-10-22T10:29:32.577Z,16.39
2022-10-22T10:32:21.081Z,16.39
2022-10-22T10:35:03.682Z,16.32
2022-10-22T10:37:39.279Z,16.38
2022-10-22T10:40:22.463Z,16.43
2022-10-22T10:42:59.599Z,16.43
2022-10-22T10:45:34.035Z,16.43
2022-10-22T10:48:33.961Z,16.47
2022-10-22T10:51:12.594Z,16.63
2022-10-22T10:53:55.965Z,16.63
2022-10-22T10:56:39.152Z,16.74
2022-10-22T10:59:30.378Z,16.71
2022-10-22T11:02:13.960Z,16.63
2022-10-22T11:05:13.322Z,16.64
2022-10-22T11:07:50.824Z,16.64
2022-10-22T11:10:29.668Z,16.74
2022-10-22T11:13:03.031Z,16.91
2022-10-22T11:15:34.882Z,17.11
2022-10-22T11:18:11.791Z,17.21
2022-10-22T11:20:49.744Z,17.19
2022-10-22T11:23:27.574Z,17.28
2022-10-22T11:25:55.383Z,17.22
2022-10-22T11:28:28.651Z,17.18
2022-10-22T11:31:01.177Z,17.25
2022-10-22T11:33:37.540Z,17.27
2022-10-22T11:36:08.670Z,17.19
2022-10-22T11:38:38.265Z,17.21
2022-10-22T11:41:10.586Z,17.39
2022-10-22T11:43:57.352Z,17.49
2022-10-22T11:46:36.165Z,17.58
2022-10-22T11:49:17.517Z,17.59
2022-10-22T11:51:46.901Z,17.63
2022-10-22T11:54:42.610Z,17.61
2022-10-22T11:57:22.069Z,17.58
2022-10-22T11:59:53.296Z,17.49
2022-10-22T12:02:38.528Z,17.51
2022-10-22T12:05:44.011Z,17.32
2022-10-22T12:08:28.643Z,17.39
2022-10-22T12:11:14.705Z,17.52
2022-10-22T12:14:12.404Z,17.56
2022-10-22T12:16:55.598Z,17.58
2022-10-22T12:19:32.883Z,17.79
2022-10-22T12:22:14.876Z,19.16
2022-10-22T12:24:45.744Z,20.79
2022-10-22T12:27:22.544Z,21.54
2022-10-22T12:29:56.055Z,22.02
2022-10-22T12:32:24.631Z,22.15
2022-10-22T12:34:53.947Z,21.82
2022-10-22T12:37:21.700Z,21.11
2022-10-22T12:39:49.444Z,20.79
2022-10-22T12:42:19.293Z,20.11
2022-10-22T12:44:47.087Z,20.00
2022-10-22T12:47:17.699Z,19.94
2022-10-22T12:49:50.331Z,19.33
2022-10-22T12:52:21.266Z,18.89
2022-10-22T12:54:52.363Z,18.55
2022-10-22T12:57:22.408Z,18.38
2022-10-22T12:59:52.238Z,18.29
2022-10-22T13:02:23.892Z,18.36
2022-10-22T13:05:16.758Z,18.31
2022-10-22T13:07:47.943Z,18.18
2022-10-22T13:10:20.243Z,18.26
2022-10-22T13:12:54.980Z,18.34
2022-10-22T13:15:34.196Z,19.90
2022-10-22T13:18:07.547Z,20.52
2022-10-22T13:20:37.366Z,20.77
2022-10-22T13:23:06.900Z,20.83
2022-10-22T13:25:37.260Z,20.83
2022-10-22T13:28:20.371Z,20.85
2022-10-22T13:30:54.610Z,20.62
2022-10-22T13:33:27.209Z,20.45
2022-10-22T13:35:56.136Z,20.44
2022-10-22T13:38:26.118Z,20.26
2022-10-22T13:40:54.320Z,19.81
2022-10-22T13:43:25.027Z,19.24
2022-10-22T13:45:55.319Z,19.13
2022-10-22T13:48:24.741Z,18.89
2022-10-22T13:50:54.233Z,18.67
2022-10-22T13:53:24.992Z,18.48
2022-10-22T13:55:52.799Z,18.47
2022-10-22T13:58:24.724Z,18.51
2022-10-22T14:00:57.030Z,18.50
2022-10-22T14:03:29.057Z,18.43
2022-10-22T14:05:57.155Z,18.45
2022-10-22T14:08:26.677Z,18.50
2022-10-22T14:10:55.455Z,18.50
2022-10-22T14:13:24.721Z,18.51
2022-10-22T14:15:53.591Z,18.51
2022-10-22T14:18:26.499Z,18.51
2022-10-22T14:20:56.055Z,18.45
2022-10-22T14:23:26.489Z,18.52
2022-10-22T14:25:54.522Z,18.45
2022-10-22T14:28:22.344Z,18.43
2022-10-22T14:30:52.605Z,18.43
2022-10-22T14:33:27.223Z,18.43
2022-10-22T14:35:59.293Z,18.50
2022-10-22T14:38:27.208Z,18.38
2022-10-22T14:40:55.585Z,18.31
2022-10-22T14:43:27.860Z,18.34
2022-10-22T14:45:57.070Z,18.31
2022-10-22T14:48:24.804Z,18.24
2022-10-22T14:50:52.925Z,18.23
2022-10-22T14:53:20.756Z,18.18
2022-10-22T14:55:49.182Z,18.14
2022-10-22T14:58:17.164Z,18.17
2022-10-22T15:00:45.051Z,18.16
2022-10-22T15:03:14.146Z,18.17
2022-10-22T15:05:44.233Z,18.04
2022-10-22T15:08:13.643Z,17.93
2022-10-22T15:10:41.607Z,17.78
2022-10-22T15:13:09.472Z,17.68
2022-10-22T15:15:39.756Z,17.59
2022-10-22T15:18:08.112Z,17.58
2022-10-22T15:20:37.293Z,17.65
2022-10-22T15:23:04.972Z,17.61
2022-10-22T15:25:32.738Z,17.55
2022-10-22T15:28:03.367Z,17.41
2022-10-22T15:30:36.788Z,17.35
2022-10-22T15:33:04.686Z,17.42
2022-10-22T15:35:32.442Z,17.31
2022-10-22T15:38:01.595Z,17.17
2022-10-22T15:40:29.218Z,17.19
2022-10-22T15:42:56.986Z,17.19
2022-10-22T15:45:25.686Z,17.12
2022-10-22T15:47:53.474Z,17.06
2022-10-22T15:50:21.242Z,16.95
2022-10-22T15:52:48.989Z,16.87
2022-10-22T15:55:18.851Z,16.76
2022-10-22T15:57:46.687Z,16.69
2022-10-22T16:00:15.332Z,16.66
2022-10-22T16:02:43.117Z,16.53
2022-10-22T16:05:11.125Z,16.43
2022-10-22T16:07:39.384Z,16.36
2022-10-22T16:10:09.315Z,16.39
2022-10-22T16:12:40.886Z,16.32
2022-10-22T16:15:10.105Z,16.20
2022-10-22T16:17:37.895Z,16.08
2022-10-22T16:20:06.481Z,15.92
2022-10-22T16:22:34.354Z,15.84
2022-10-22T16:25:02.117Z,15.64
2022-10-22T16:27:29.886Z,15.58
2022-10-22T16:29:58.992Z,15.51
2022-10-22T16:32:26.859Z,15.40
2022-10-22T16:34:54.542Z,15.27
2022-10-22T16:37:22.300Z,15.17
2022-10-22T16:39:50.328Z,15.10
2022-10-22T16:42:18.047Z,15.10
2022-10-22T16:44:45.847Z,15.08
2022-10-22T16:47:15.010Z,15.10
2022-10-22T16:49:42.765Z,15.04
2022-10-22T16:52:10.521Z,15.06
2022-10-22T16:54:38.330Z,15.10
2022-10-22T16:57:06.165Z,15.22
2022-10-22T16:59:34.213Z,15.26
2022-10-22T17:02:01.944Z,15.23
2022-10-22T17:04:31.055Z,15.11
2022-10-22T17:06:58.855Z,15.04
2022-10-22T17:09:26.621Z,14.87
2022-10-22T17:11:54.617Z,14.79
2022-10-22T17:14:22.375Z,14.79
2022-10-22T17:16:53.625Z,14.86
2022-10-22T17:19:22.460Z,15.04
2022-10-22T17:21:53.527Z,15.17
2022-10-22T17:24:21.530Z,15.24
2022-10-22T17:26:49.325Z,15.26
2022-10-22T17:29:18.047Z,15.27
2022-10-22T17:31:45.832Z,15.20
2022-10-22T17:34:17.265Z,15.30
2022-10-22T17:36:45.766Z,15.23
2022-10-22T17:39:18.445Z,15.19
2022-10-22T17:41:46.645Z,15.16
2022-10-22T17:44:14.643Z,15.11
2022-10-22T17:46:43.770Z,15.04
2022-10-22T17:49:16.700Z,15.02
2022-10-22T17:51:44.561Z,14.97
2022-10-22T17:54:13.426Z,14.80
2022-10-22T17:56:42.636Z,14.79
2022-10-22T17:59:13.457Z,14.71
2022-10-22T18:01:45.310Z,14.72
2022-10-22T18:04:15.940Z,14.77
2022-10-22T18:06:43.805Z,14.77
2022-10-22T18:09:18.192Z,14.77
2022-10-22T18:11:48.419Z,14.73
2022-10-22T18:14:17.475Z,14.71
2022-10-22T18:16:45.260Z,14.75
2022-10-22T18:19:16.425Z,14.80
2022-10-22T18:21:44.317Z,14.86
2022-10-22T18:24:12.452Z,14.85
2022-10-22T18:26:40.232Z,14.77
2022-10-22T18:29:10.417Z,14.76
2022-10-22T18:31:38.204Z,14.62
2022-10-22T18:34:05.957Z,14.51
2022-10-22T18:36:33.705Z,14.39
2022-10-22T18:39:03.411Z,14.36
2022-10-22T18:41:32.804Z,14.35
2022-10-22T18:44:02.667Z,14.34
2022-10-22T18:46:34.587Z,14.28
2022-10-22T18:49:02.809Z,14.34
2022-10-22T18:51:31.758Z,14.35
2022-10-22T18:54:05.771Z,14.28
2022-10-22T18:56:47.478Z,14.24
2022-10-22T18:59:18.027Z,14.08
2022-10-22T19:01:47.236Z,14.03
2022-10-22T19:04:14.944Z,14.00
2022-10-22T19:06:45.672Z,13.95
2022-10-22T19:09:14.777Z,13.83
2022-10-22T19:11:43.755Z,13.71
2022-10-22T19:14:11.663Z,13.56
2022-10-22T19:16:39.448Z,13.46
2022-10-22T19:19:09.223Z,13.33
2022-10-22T19:21:37.845Z,13.16
2022-10-22T19:24:06.285Z,13.11
2022-10-22T19:26:34.081Z,13.05
2022-10-22T19:29:01.923Z,13.01
2022-10-22T19:31:31.166Z,12.92
2022-10-22T19:33:59.309Z,12.82
2022-10-22T19:36:30.075Z,12.75
2022-10-22T19:38:58.625Z,12.69
2022-10-22T19:41:27.972Z,12.67
2022-10-22T19:43:56.989Z,12.64
2022-10-22T19:46:26.659Z,12.61
2022-10-22T19:48:56.943Z,12.60
2022-10-22T19:51:26.648Z,12.55
2022-10-22T19:54:00.209Z,12.51
2022-10-22T19:56:28.786Z,12.47
2022-10-22T19:58:56.779Z,12.40
2022-10-22T20:01:25.200Z,12.37
2022-10-22T20:03:53.259Z,12.33
2022-10-22T20:06:21.831Z,12.31
2022-10-22T20:08:53.726Z,12.23
2022-10-22T20:11:26.948Z,12.20
2022-10-22T20:13:55.301Z,12.16
2022-10-22T20:16:24.668Z,12.14
2022-10-22T20:18:52.909Z,12.19
2022-10-22T20:21:21.975Z,12.20
2022-10-22T20:23:54.104Z,12.24
2022-10-22T20:26:23.845Z,12.24
2022-10-22T20:28:53.881Z,12.19
2022-10-22T20:31:24.034Z,12.12
2022-10-22T20:33:52.110Z,12.06
2022-10-22T20:36:22.576Z,12.03
2022-10-22T20:38:51.136Z,12.14
2022-10-22T20:41:21.072Z,12.36
2022-10-22T20:43:51.125Z,12.53
2022-10-22T20:46:22.968Z,12.77
2022-10-22T20:48:51.974Z,12.96
2022-10-22T20:51:20.036Z,13.02
2022-10-22T20:53:47.895Z,13.02
2022-10-22T20:56:15.991Z,13.19
2022-10-22T20:58:48.068Z,13.29
2022-10-22T21:01:21.456Z,13.39
2022-10-22T21:03:51.469Z,13.47
2022-10-22T21:06:21.011Z,13.38
2022-10-22T21:08:49.068Z,13.43
2022-10-22T21:11:16.945Z,13.56
2022-10-22T21:13:44.761Z,13.62
2022-10-22T21:16:14.745Z,13.64
2022-10-22T21:18:42.569Z,13.69
2022-10-22T21:21:12.295Z,13.74
2022-10-22T21:23:40.987Z,13.76
2022-10-22T21:26:08.953Z,13.66
2022-10-22T21:28:38.144Z,13.59
2022-10-22T21:31:08.173Z,13.56
2022-10-22T21:33:36.834Z,13.59
2022-10-22T21:36:05.561Z,13.45
2022-10-22T21:38:36.220Z,13.25
2022-10-22T21:41:05.902Z,13.19
2022-10-22T21:43:33.955Z,13.23
2022-10-22T21:46:08.022Z,13.20
2022-10-22T21:48:36.692Z,13.13
2022-10-22T21:51:08.802Z,13.15
2022-10-22T21:53:38.280Z,13.12
2022-10-22T21:56:07.830Z,13.20
2022-10-22T21:58:36.034Z,13.15
2022-10-22T22:01:04.570Z,13.05
2022-10-22T22:03:32.460Z,12.99
2022-10-22T22:06:01.459Z,13.01
2022-10-22T22:08:29.686Z,12.96
2022-10-22T22:11:04.179Z,13.08
2022-10-22T22:13:32.535Z,13.09
2022-10-22T22:16:01.435Z,13.08
2022-10-22T22:18:29.682Z,13.16
2022-10-22T22:20:57.947Z,13.15
2022-10-22T22:23:25.859Z,13.11
2022-10-22T22:25:53.891Z,13.06
2022-10-22T22:28:23.058Z,13.04
2022-10-22T22:30:50.847Z,13.05
2022-10-22T22:33:18.917Z,13.02
2022-10-22T22:35:46.706Z,13.13
2022-10-22T22:38:14.532Z,13.04
2022-10-22T22:40:43.204Z,12.98
2022-10-22T22:43:12.859Z,12.89
2022-10-22T22:45:41.973Z,12.88
2022-10-22T22:48:09.748Z,12.89
2022-10-22T22:50:37.665Z,12.91
2022-10-22T22:53:05.501Z,12.96
2022-10-22T22:55:33.268Z,13.05
2022-10-22T22:58:01.055Z,13.05
2022-10-22T23:00:28.918Z,13.04
2022-10-22T23:02:58.109Z,13.02
2022-10-22T23:05:25.980Z,12.89
2022-10-22T23:07:53.792Z,12.78
2022-10-22T23:10:21.821Z,12.82
2022-10-22T23:12:50.843Z,12.84
2022-10-22T23:15:18.648Z,12.92
2022-10-22T23:17:46.409Z,12.92
2022-10-22T23:20:15.513Z,12.92
2022-10-22T23:22:43.427Z,12.99
2022-10-22T23:25:11.394Z,13.05
2022-10-22T23:27:39.335Z,13.18
2022-10-22T23:30:08.600Z,13.35
2022-10-22T23:32:37.180Z,13.39
2022-10-22T23:35:05.365Z,13.56
2022-10-22T23:37:34.478Z,13.66
2022-10-22T23:40:02.277Z,13.73
2022-10-22T23:42:30.094Z,13.83
2022-10-22T23:44:57.930Z,13.93
2022-10-22T23:47:25.835Z,14.07
2022-10-22T23:49:53.657Z,14.13
2022-10-22T23:52:21.434Z,14.22
2022-10-22T23:54:50.911Z,14.25
2022-10-22T23:57:18.719Z,14.34
2022-10-22T23:59:46.487Z,14.46
